sensor_id;sensor_type;location;lat;lon;timestamp;P1;durP1;ratioP1;P2;durP2;ratioP2
59042;SDS011;44826;51.596;5.624;2022-10-15T00:00:02;7.05;;;4.97;;
59042;SDS011;44826;51.596;5.624;2022-10-15T00:02:29;18.33;;;5.20;;
59042;SDS011;44826;51.596;5.624;2022-10-15T00:04:54;67.90;;;6.15;;
59042;SDS011;44826;51.596;5.624;2022-10-15T00:07:19;48.95;;;5.15;;
59042;SDS011;44826;51.596;5.624;2022-10-15T00:09:44;30.52;;;5.43;;
59042;SDS011;44826;51.596;5.624;2022-10-15T00:12:10;30.80;;;5.47;;
59042;SDS011;44826;51.596;5.624;2022-10-15T00:14:35;24.58;;;5.45;;
59042;SDS011;44826;51.596;5.624;2022-10-15T00:17:00;24.45;;;5.90;;
59042;SDS011;44826;51.596;5.624;2022-10-15T00:19:25;16.63;;;5.97;;
59042;SDS011;44826;51.596;5.624;2022-10-15T00:21:51;18.13;;;6.45;;
59042;SDS011;44826;51.596;5.624;2022-10-15T00:24:16;8.98;;;6.10;;
59042;SDS011;44826;51.596;5.624;2022-10-15T00:26:43;24.05;;;6.53;;
59042;SDS011;44826;51.596;5.624;2022-10-15T00:29:08;9.85;;;6.25;;
59042;SDS011;44826;51.596;5.624;2022-10-15T00:31:34;13.65;;;5.93;;
59042;SDS011;44826;51.596;5.624;2022-10-15T00:33:59;9.13;;;6.82;;
59042;SDS011;44826;51.596;5.624;2022-10-15T00:36:26;11.55;;;7.88;;
59042;SDS011;44826;51.596;5.624;2022-10-15T00:38:54;12.52;;;8.25;;
59042;SDS011;44826;51.596;5.624;2022-10-15T00:41:21;16.35;;;8.55;;
59042;SDS011;44826;51.596;5.624;2022-10-15T00:43:50;15.57;;;10.38;;
59042;SDS011;44826;51.596;5.624;2022-10-15T00:46:19;16.42;;;10.73;;
59042;SDS011;44826;51.596;5.624;2022-10-15T00:48:54;14.98;;;10.57;;
59042;SDS011;44826;51.596;5.624;2022-10-15T00:51:25;17.17;;;11.40;;
59042;SDS011;44826;51.596;5.624;2022-10-15T00:53:54;17.08;;;11.35;;
59042;SDS011;44826;51.596;5.624;2022-10-15T00:56:20;19.55;;;11.82;;
59042;SDS011;44826;51.596;5.624;2022-10-15T00:58:48;18.02;;;11.57;;
59042;SDS011;44826;51.596;5.624;2022-10-15T01:01:16;21.30;;;11.88;;
59042;SDS011;44826;51.596;5.624;2022-10-15T01:03:41;18.25;;;11.32;;
59042;SDS011;44826;51.596;5.624;2022-10-15T01:06:07;19.52;;;12.10;;
59042;SDS011;44826;51.596;5.624;2022-10-15T01:08:32;19.30;;;12.02;;
59042;SDS011;44826;51.596;5.624;2022-10-15T01:14:08;21.02;;;12.77;;
59042;SDS011;44826;51.596;5.624;2022-10-15T01:28:00;21.50;;;12.43;;
59042;SDS011;44826;51.596;5.624;2022-10-15T01:30:31;18.30;;;12.52;;
59042;SDS011;44826;51.596;5.624;2022-10-15T01:41:41;18.83;;;12.50;;
59042;SDS011;44826;51.596;5.624;2022-10-15T01:44:14;21.65;;;13.02;;
59042;SDS011;44826;51.596;5.624;2022-10-15T01:47:00;20.75;;;13.45;;
59042;SDS011;44826;51.596;5.624;2022-10-15T01:49:30;21.15;;;13.43;;
59042;SDS011;44826;51.596;5.624;2022-10-15T01:52:01;20.05;;;13.15;;
59042;SDS011;44826;51.596;5.624;2022-10-15T01:54:29;17.80;;;12.63;;
59042;SDS011;44826;51.596;5.624;2022-10-15T01:56:55;20.23;;;13.48;;
59042;SDS011;44826;51.596;5.624;2022-10-15T01:59:23;19.73;;;13.38;;
59042;SDS011;44826;51.596;5.624;2022-10-15T02:01:52;19.65;;;13.45;;
59042;SDS011;44826;51.596;5.624;2022-10-15T02:04:20;19.23;;;13.00;;
59042;SDS011;44826;51.596;5.624;2022-10-15T02:06:49;21.83;;;13.77;;
59042;SDS011;44826;51.596;5.624;2022-10-15T02:09:43;20.63;;;13.02;;
59042;SDS011;44826;51.596;5.624;2022-10-15T02:15:46;17.88;;;12.48;;
59042;SDS011;44826;51.596;5.624;2022-10-15T02:20:44;18.50;;;12.43;;
59042;SDS011;44826;51.596;5.624;2022-10-15T02:23:30;17.73;;;12.90;;
59042;SDS011;44826;51.596;5.624;2022-10-15T02:26:03;19.48;;;12.23;;
59042;SDS011;44826;51.596;5.624;2022-10-15T02:28:31;17.83;;;12.30;;
59042;SDS011;44826;51.596;5.624;2022-10-15T02:30:58;18.85;;;13.00;;
59042;SDS011;44826;51.596;5.624;2022-10-15T02:33:26;18.50;;;12.93;;
59042;SDS011;44826;51.596;5.624;2022-10-15T02:35:54;19.75;;;12.60;;
59042;SDS011;44826;51.596;5.624;2022-10-15T02:38:22;19.33;;;13.13;;
59042;SDS011;44826;51.596;5.624;2022-10-15T02:40:50;17.60;;;12.35;;
59042;SDS011;44826;51.596;5.624;2022-10-15T02:43:17;22.65;;;12.85;;
59042;SDS011;44826;51.596;5.624;2022-10-15T02:45:44;18.30;;;12.60;;
59042;SDS011;44826;51.596;5.624;2022-10-15T02:48:09;18.00;;;12.40;;
59042;SDS011;44826;51.596;5.624;2022-10-15T02:50:35;17.92;;;12.68;;
59042;SDS011;44826;51.596;5.624;2022-10-15T02:53:00;18.55;;;12.48;;
59042;SDS011;44826;51.596;5.624;2022-10-15T02:55:25;18.40;;;12.18;;
59042;SDS011;44826;51.596;5.624;2022-10-15T02:57:51;16.85;;;12.57;;
59042;SDS011;44826;51.596;5.624;2022-10-15T03:00:16;18.60;;;12.45;;
59042;SDS011;44826;51.596;5.624;2022-10-15T03:02:42;16.55;;;11.95;;
59042;SDS011;44826;51.596;5.624;2022-10-15T03:05:08;19.50;;;12.57;;
59042;SDS011;44826;51.596;5.624;2022-10-15T03:07:33;19.75;;;12.43;;
59042;SDS011;44826;51.596;5.624;2022-10-15T03:09:58;19.75;;;12.00;;
59042;SDS011;44826;51.596;5.624;2022-10-15T03:12:23;20.88;;;12.50;;
59042;SDS011;44826;51.596;5.624;2022-10-15T03:14:50;22.08;;;13.18;;
59042;SDS011;44826;51.596;5.624;2022-10-15T03:17:15;19.80;;;12.82;;
59042;SDS011;44826;51.596;5.624;2022-10-15T03:19:40;18.58;;;13.27;;
59042;SDS011;44826;51.596;5.624;2022-10-15T03:22:06;18.45;;;12.48;;
59042;SDS011;44826;51.596;5.624;2022-10-15T03:24:31;17.65;;;12.23;;
59042;SDS011;44826;51.596;5.624;2022-10-15T03:26:56;20.77;;;13.27;;
59042;SDS011;44826;51.596;5.624;2022-10-15T03:29:22;17.50;;;12.95;;
59042;SDS011;44826;51.596;5.624;2022-10-15T03:31:47;18.63;;;12.85;;
59042;SDS011;44826;51.596;5.624;2022-10-15T03:34:12;18.13;;;12.85;;
59042;SDS011;44826;51.596;5.624;2022-10-15T03:36:38;19.63;;;12.75;;
59042;SDS011;44826;51.596;5.624;2022-10-15T03:39:03;19.08;;;12.63;;
59042;SDS011;44826;51.596;5.624;2022-10-15T03:41:28;18.63;;;12.65;;
59042;SDS011;44826;51.596;5.624;2022-10-15T03:43:54;18.35;;;12.63;;
59042;SDS011;44826;51.596;5.624;2022-10-15T03:46:19;19.13;;;12.45;;
59042;SDS011;44826;51.596;5.624;2022-10-15T03:48:47;19.70;;;13.13;;
59042;SDS011;44826;51.596;5.624;2022-10-15T03:51:13;17.17;;;12.30;;
59042;SDS011;44826;51.596;5.624;2022-10-15T03:53:39;17.63;;;12.85;;
59042;SDS011;44826;51.596;5.624;2022-10-15T03:56:04;19.27;;;13.20;;
59042;SDS011;44826;51.596;5.624;2022-10-15T03:58:30;20.65;;;14.10;;
59042;SDS011;44826;51.596;5.624;2022-10-15T04:00:55;23.42;;;13.82;;
59042;SDS011;44826;51.596;5.624;2022-10-15T04:03:21;19.20;;;13.38;;
59042;SDS011;44826;51.596;5.624;2022-10-15T04:05:50;20.35;;;13.52;;
59042;SDS011;44826;51.596;5.624;2022-10-15T04:08:16;19.63;;;13.20;;
59042;SDS011;44826;51.596;5.624;2022-10-15T04:10:41;20.70;;;13.63;;
59042;SDS011;44826;51.596;5.624;2022-10-15T04:13:06;20.42;;;13.50;;
59042;SDS011;44826;51.596;5.624;2022-10-15T04:15:31;20.75;;;14.10;;
59042;SDS011;44826;51.596;5.624;2022-10-15T04:17:57;22.33;;;12.98;;
59042;SDS011;44826;51.596;5.624;2022-10-15T04:20:22;21.90;;;14.07;;
59042;SDS011;44826;51.596;5.624;2022-10-15T04:22:47;22.85;;;14.60;;
59042;SDS011;44826;51.596;5.624;2022-10-15T04:25:13;21.13;;;13.75;;
59042;SDS011;44826;51.596;5.624;2022-10-15T04:27:38;19.88;;;13.20;;
59042;SDS011;44826;51.596;5.624;2022-10-15T04:30:04;22.27;;;13.35;;
59042;SDS011;44826;51.596;5.624;2022-10-15T04:32:29;21.25;;;13.35;;
59042;SDS011;44826;51.596;5.624;2022-10-15T04:34:55;24.38;;;14.48;;
59042;SDS011;44826;51.596;5.624;2022-10-15T04:37:20;23.90;;;14.05;;
59042;SDS011;44826;51.596;5.624;2022-10-15T04:39:45;23.10;;;13.85;;
59042;SDS011;44826;51.596;5.624;2022-10-15T04:42:11;25.83;;;14.68;;
59042;SDS011;44826;51.596;5.624;2022-10-15T04:44:36;25.08;;;14.82;;
59042;SDS011;44826;51.596;5.624;2022-10-15T04:47:01;26.48;;;15.43;;
59042;SDS011;44826;51.596;5.624;2022-10-15T04:49:26;26.98;;;15.50;;
59042;SDS011;44826;51.596;5.624;2022-10-15T04:51:52;29.08;;;14.73;;
59042;SDS011;44826;51.596;5.624;2022-10-15T04:54:17;25.17;;;14.77;;
59042;SDS011;44826;51.596;5.624;2022-10-15T04:56:42;26.02;;;15.25;;
59042;SDS011;44826;51.596;5.624;2022-10-15T04:59:08;26.02;;;15.45;;
59042;SDS011;44826;51.596;5.624;2022-10-15T05:01:33;27.02;;;15.90;;
59042;SDS011;44826;51.596;5.624;2022-10-15T05:03:59;25.25;;;15.68;;
59042;SDS011;44826;51.596;5.624;2022-10-15T05:06:24;27.85;;;15.55;;
59042;SDS011;44826;51.596;5.624;2022-10-15T05:08:50;27.25;;;16.60;;
59042;SDS011;44826;51.596;5.624;2022-10-15T05:11:17;29.08;;;16.02;;
59042;SDS011;44826;51.596;5.624;2022-10-15T05:13:44;30.23;;;16.83;;
59042;SDS011;44826;51.596;5.624;2022-10-15T05:18:38;29.70;;;16.85;;
59042;SDS011;44826;51.596;5.624;2022-10-15T05:21:04;32.03;;;17.23;;
59042;SDS011;44826;51.596;5.624;2022-10-15T05:23:30;28.63;;;16.67;;
59042;SDS011;44826;51.596;5.624;2022-10-15T05:25:58;28.55;;;16.73;;
59042;SDS011;44826;51.596;5.624;2022-10-15T05:28:24;30.83;;;17.00;;
59042;SDS011;44826;51.596;5.624;2022-10-15T05:30:50;28.73;;;16.55;;
59042;SDS011;44826;51.596;5.624;2022-10-15T05:33:15;28.60;;;16.27;;
59042;SDS011;44826;51.596;5.624;2022-10-15T05:35:40;29.08;;;16.27;;
59042;SDS011;44826;51.596;5.624;2022-10-15T05:38:06;28.27;;;16.27;;
59042;SDS011;44826;51.596;5.624;2022-10-15T05:40:31;26.08;;;15.30;;
59042;SDS011;44826;51.596;5.624;2022-10-15T05:42:56;25.85;;;15.40;;
59042;SDS011;44826;51.596;5.624;2022-10-15T05:45:22;27.83;;;15.27;;
59042;SDS011;44826;51.596;5.624;2022-10-15T05:47:47;29.02;;;15.95;;
59042;SDS011;44826;51.596;5.624;2022-10-15T05:50:12;26.08;;;15.70;;
59042;SDS011;44826;51.596;5.624;2022-10-15T05:52:38;26.63;;;15.23;;
59042;SDS011;44826;51.596;5.624;2022-10-15T05:55:04;28.70;;;15.60;;
59042;SDS011;44826;51.596;5.624;2022-10-15T05:57:29;29.13;;;16.58;;
59042;SDS011;44826;51.596;5.624;2022-10-15T05:59:54;28.60;;;16.67;;
59042;SDS011;44826;51.596;5.624;2022-10-15T06:02:19;34.15;;;15.73;;
59042;SDS011;44826;51.596;5.624;2022-10-15T06:04:45;29.13;;;15.15;;
59042;SDS011;44826;51.596;5.624;2022-10-15T06:07:11;26.13;;;15.70;;
59042;SDS011;44826;51.596;5.624;2022-10-15T06:09:36;27.45;;;16.05;;
59042;SDS011;44826;51.596;5.624;2022-10-15T06:12:02;27.70;;;16.42;;
59042;SDS011;44826;51.596;5.624;2022-10-15T06:14:27;26.30;;;15.63;;
59042;SDS011;44826;51.596;5.624;2022-10-15T06:16:54;27.58;;;16.00;;
59042;SDS011;44826;51.596;5.624;2022-10-15T06:19:19;26.95;;;15.48;;
59042;SDS011;44826;51.596;5.624;2022-10-15T06:21:44;26.10;;;15.98;;
59042;SDS011;44826;51.596;5.624;2022-10-15T06:24:10;26.40;;;14.82;;
59042;SDS011;44826;51.596;5.624;2022-10-15T06:26:35;25.15;;;14.60;;
59042;SDS011;44826;51.596;5.624;2022-10-15T06:29:01;25.63;;;15.30;;
59042;SDS011;44826;51.596;5.624;2022-10-15T06:31:26;26.35;;;15.32;;
59042;SDS011;44826;51.596;5.624;2022-10-15T06:33:51;24.95;;;14.88;;
59042;SDS011;44826;51.596;5.624;2022-10-15T06:36:16;27.98;;;15.93;;
59042;SDS011;44826;51.596;5.624;2022-10-15T06:38:42;26.88;;;15.45;;
59042;SDS011;44826;51.596;5.624;2022-10-15T06:41:08;26.63;;;14.80;;
59042;SDS011;44826;51.596;5.624;2022-10-15T06:43:34;27.45;;;16.08;;
59042;SDS011;44826;51.596;5.624;2022-10-15T06:45:59;26.73;;;15.18;;
59042;SDS011;44826;51.596;5.624;2022-10-15T06:48:25;24.48;;;15.23;;
59042;SDS011;44826;51.596;5.624;2022-10-15T06:50:50;26.30;;;14.77;;
59042;SDS011;44826;51.596;5.624;2022-10-15T06:53:16;24.30;;;14.05;;
59042;SDS011;44826;51.596;5.624;2022-10-15T06:55:41;23.25;;;13.70;;
59042;SDS011;44826;51.596;5.624;2022-10-15T06:58:07;21.85;;;13.02;;
59042;SDS011;44826;51.596;5.624;2022-10-15T07:00:33;23.50;;;13.98;;
59042;SDS011;44826;51.596;5.624;2022-10-15T07:03:02;22.42;;;13.20;;
59042;SDS011;44826;51.596;5.624;2022-10-15T07:05:28;23.42;;;13.23;;
59042;SDS011;44826;51.596;5.624;2022-10-15T07:07:54;21.63;;;12.25;;
59042;SDS011;44826;51.596;5.624;2022-10-15T07:10:21;23.25;;;13.23;;
59042;SDS011;44826;51.596;5.624;2022-10-15T07:12:47;23.83;;;12.93;;
59042;SDS011;44826;51.596;5.624;2022-10-15T07:15:12;21.48;;;12.50;;
59042;SDS011;44826;51.596;5.624;2022-10-15T07:17:38;23.23;;;12.48;;
59042;SDS011;44826;51.596;5.624;2022-10-15T07:20:04;21.88;;;12.68;;
59042;SDS011;44826;51.596;5.624;2022-10-15T07:22:30;22.10;;;12.80;;
59042;SDS011;44826;51.596;5.624;2022-10-15T07:24:55;22.02;;;12.88;;
59042;SDS011;44826;51.596;5.624;2022-10-15T07:27:20;22.35;;;12.45;;
59042;SDS011;44826;51.596;5.624;2022-10-15T07:29:46;20.98;;;12.40;;
59042;SDS011;44826;51.596;5.624;2022-10-15T07:32:11;20.55;;;12.52;;
59042;SDS011;44826;51.596;5.624;2022-10-15T07:34:36;23.02;;;12.25;;
59042;SDS011;44826;51.596;5.624;2022-10-15T07:37:02;22.55;;;12.27;;
59042;SDS011;44826;51.596;5.624;2022-10-15T07:39:27;20.52;;;12.43;;
59042;SDS011;44826;51.596;5.624;2022-10-15T07:41:52;20.27;;;11.85;;
59042;SDS011;44826;51.596;5.624;2022-10-15T07:44:17;22.40;;;11.75;;
59042;SDS011;44826;51.596;5.624;2022-10-15T07:46:43;19.92;;;11.70;;
59042;SDS011;44826;51.596;5.624;2022-10-15T07:49:08;18.90;;;11.63;;
59042;SDS011;44826;51.596;5.624;2022-10-15T07:51:35;19.13;;;11.35;;
59042;SDS011;44826;51.596;5.624;2022-10-15T07:54:00;19.52;;;10.73;;
59042;SDS011;44826;51.596;5.624;2022-10-15T07:56:25;18.58;;;11.75;;
59042;SDS011;44826;51.596;5.624;2022-10-15T07:58:51;18.80;;;11.48;;
59042;SDS011;44826;51.596;5.624;2022-10-15T08:01:16;19.05;;;11.20;;
59042;SDS011;44826;51.596;5.624;2022-10-15T08:03:43;20.38;;;10.98;;
59042;SDS011;44826;51.596;5.624;2022-10-15T08:06:09;19.02;;;11.43;;
59042;SDS011;44826;51.596;5.624;2022-10-15T08:08:34;18.40;;;11.05;;
59042;SDS011;44826;51.596;5.624;2022-10-15T08:11:10;19.85;;;11.25;;
59042;SDS011;44826;51.596;5.624;2022-10-15T08:13:37;19.73;;;11.40;;
59042;SDS011;44826;51.596;5.624;2022-10-15T08:16:06;16.27;;;9.88;;
59042;SDS011;44826;51.596;5.624;2022-10-15T08:18:32;18.70;;;10.63;;
59042;SDS011;44826;51.596;5.624;2022-10-15T08:20:58;18.67;;;10.68;;
59042;SDS011;44826;51.596;5.624;2022-10-15T08:23:24;17.98;;;10.10;;
59042;SDS011;44826;51.596;5.624;2022-10-15T08:25:50;17.83;;;10.20;;
59042;SDS011;44826;51.596;5.624;2022-10-15T08:28:15;14.70;;;9.15;;
59042;SDS011;44826;51.596;5.624;2022-10-15T08:30:40;16.00;;;9.02;;
59042;SDS011;44826;51.596;5.624;2022-10-15T08:33:05;15.43;;;8.70;;
59042;SDS011;44826;51.596;5.624;2022-10-15T08:35:31;13.68;;;8.40;;
59042;SDS011;44826;51.596;5.624;2022-10-15T08:38:01;14.85;;;8.85;;
59042;SDS011;44826;51.596;5.624;2022-10-15T08:40:27;14.00;;;8.38;;
59042;SDS011;44826;51.596;5.624;2022-10-15T08:42:53;14.27;;;7.85;;
59042;SDS011;44826;51.596;5.624;2022-10-15T08:45:29;13.90;;;7.70;;
59042;SDS011;44826;51.596;5.624;2022-10-15T08:48:02;12.68;;;7.93;;
59042;SDS011;44826;51.596;5.624;2022-10-15T08:50:39;14.45;;;7.65;;
59042;SDS011;44826;51.596;5.624;2022-10-15T08:53:11;11.82;;;7.03;;
59042;SDS011;44826;51.596;5.624;2022-10-15T08:55:38;11.68;;;7.15;;
59042;SDS011;44826;51.596;5.624;2022-10-15T09:06:00;10.02;;;6.15;;
59042;SDS011;44826;51.596;5.624;2022-10-15T09:08:40;10.20;;;6.22;;
59042;SDS011;44826;51.596;5.624;2022-10-15T09:13:55;10.18;;;5.75;;
59042;SDS011;44826;51.596;5.624;2022-10-15T09:16:23;10.93;;;6.13;;
59042;SDS011;44826;51.596;5.624;2022-10-15T09:18:51;9.90;;;6.18;;
59042;SDS011;44826;51.596;5.624;2022-10-15T09:21:21;11.45;;;6.45;;
59042;SDS011;44826;51.596;5.624;2022-10-15T09:23:49;9.80;;;5.63;;
59042;SDS011;44826;51.596;5.624;2022-10-15T09:34:21;8.95;;;5.60;;
59042;SDS011;44826;51.596;5.624;2022-10-15T09:37:00;11.80;;;5.78;;
59042;SDS011;44826;51.596;5.624;2022-10-15T09:39:37;8.82;;;5.28;;
59042;SDS011;44826;51.596;5.624;2022-10-15T09:42:28;10.30;;;5.57;;
59042;SDS011;44826;51.596;5.624;2022-10-15T09:44:58;11.10;;;5.05;;
59042;SDS011;44826;51.596;5.624;2022-10-15T09:47:33;8.50;;;5.13;;
59042;SDS011;44826;51.596;5.624;2022-10-15T09:49:59;8.30;;;5.35;;
59042;SDS011;44826;51.596;5.624;2022-10-15T09:53:14;8.57;;;5.45;;
59042;SDS011;44826;51.596;5.624;2022-10-15T09:55:32;8.45;;;5.28;;
59042;SDS011;44826;51.596;5.624;2022-10-15T09:58:07;8.45;;;5.18;;
59042;SDS011;44826;51.596;5.624;2022-10-15T10:00:53;8.98;;;5.40;;
59042;SDS011;44826;51.596;5.624;2022-10-15T10:03:20;8.40;;;4.80;;
59042;SDS011;44826;51.596;5.624;2022-10-15T10:05:48;6.90;;;4.63;;
59042;SDS011;44826;51.596;5.624;2022-10-15T10:08:19;9.32;;;4.93;;
59042;SDS011;44826;51.596;5.624;2022-10-15T10:10:56;8.60;;;4.97;;
59042;SDS011;44826;51.596;5.624;2022-10-15T10:13:27;6.78;;;4.57;;
59042;SDS011;44826;51.596;5.624;2022-10-15T10:16:00;6.78;;;4.22;;
59042;SDS011;44826;51.596;5.624;2022-10-15T10:18:30;8.55;;;4.80;;
59042;SDS011;44826;51.596;5.624;2022-10-15T10:21:00;8.02;;;4.50;;
59042;SDS011;44826;51.596;5.624;2022-10-15T10:23:31;7.30;;;4.68;;
59042;SDS011;44826;51.596;5.624;2022-10-15T10:31:10;8.88;;;4.60;;
59042;SDS011;44826;51.596;5.624;2022-10-15T10:33:42;6.78;;;4.38;;
59042;SDS011;44826;51.596;5.624;2022-10-15T10:36:26;7.10;;;4.40;;
59042;SDS011;44826;51.596;5.624;2022-10-15T10:38:55;7.40;;;4.25;;
59042;SDS011;44826;51.596;5.624;2022-10-15T10:41:45;7.57;;;4.30;;
59042;SDS011;44826;51.596;5.624;2022-10-15T10:44:33;7.75;;;4.45;;
59042;SDS011;44826;51.596;5.624;2022-10-15T10:47:20;6.10;;;3.95;;
59042;SDS011;44826;51.596;5.624;2022-10-15T10:49:55;5.80;;;3.83;;
59042;SDS011;44826;51.596;5.624;2022-10-15T10:52:29;6.15;;;3.40;;
59042;SDS011;44826;51.596;5.624;2022-10-15T11:00:20;4.15;;;2.70;;
59042;SDS011;44826;51.596;5.624;2022-10-15T11:02:53;4.65;;;3.00;;
59042;SDS011;44826;51.596;5.624;2022-10-15T11:05:21;4.10;;;2.97;;
59042;SDS011;44826;51.596;5.624;2022-10-15T11:10:30;3.83;;;2.28;;
59042;SDS011;44826;51.596;5.624;2022-10-15T11:13:08;3.75;;;2.13;;
59042;SDS011;44826;51.596;5.624;2022-10-15T11:15:58;3.88;;;1.90;;
59042;SDS011;44826;51.596;5.624;2022-10-15T11:32:45;2.50;;;1.70;;
59042;SDS011;44826;51.596;5.624;2022-10-15T11:41:10;2.28;;;1.40;;
59042;SDS011;44826;51.596;5.624;2022-10-15T11:46:37;2.28;;;1.30;;
59042;SDS011;44826;51.596;5.624;2022-10-15T11:54:37;4.03;;;1.30;;
59042;SDS011;44826;51.596;5.624;2022-10-15T11:57:08;1.77;;;1.20;;
59042;SDS011;44826;51.596;5.624;2022-10-15T11:59:41;2.08;;;1.27;;
59042;SDS011;44826;51.596;5.624;2022-10-15T12:02:32;1.50;;;1.20;;
59042;SDS011;44826;51.596;5.624;2022-10-15T12:07:39;1.60;;;1.50;;
59042;SDS011;44826;51.596;5.624;2022-10-15T12:12:43;1.67;;;1.58;;
59042;SDS011;44826;51.596;5.624;2022-10-15T12:15:23;1.70;;;1.60;;
59042;SDS011;44826;51.596;5.624;2022-10-15T12:21:02;2.78;;;1.90;;
59042;SDS011;44826;51.596;5.624;2022-10-15T12:25:58;2.10;;;1.90;;
59042;SDS011;44826;51.596;5.624;2022-10-15T12:28:25;2.38;;;2.08;;
59042;SDS011;44826;51.596;5.624;2022-10-15T12:30:56;2.22;;;2.00;;
59042;SDS011;44826;51.596;5.624;2022-10-15T12:33:49;3.72;;;2.05;;
59042;SDS011;44826;51.596;5.624;2022-10-15T12:36:24;2.88;;;2.00;;
59042;SDS011;44826;51.596;5.624;2022-10-15T12:39:00;2.20;;;2.00;;
59042;SDS011;44826;51.596;5.624;2022-10-15T12:41:44;2.60;;;2.08;;
59042;SDS011;44826;51.596;5.624;2022-10-15T12:44:27;2.00;;;1.77;;
59042;SDS011;44826;51.596;5.624;2022-10-15T12:46:55;1.80;;;1.70;;
59042;SDS011;44826;51.596;5.624;2022-10-15T12:51:55;2.00;;;1.70;;
59042;SDS011;44826;51.596;5.624;2022-10-15T12:54:35;2.75;;;1.70;;
59042;SDS011;44826;51.596;5.624;2022-10-15T12:59:59;2.63;;;1.65;;
59042;SDS011;44826;51.596;5.624;2022-10-15T13:04:59;4.70;;;1.77;;
59042;SDS011;44826;51.596;5.624;2022-10-15T13:07:25;1.92;;;1.80;;
59042;SDS011;44826;51.596;5.624;2022-10-15T13:09:50;2.13;;;1.80;;
59042;SDS011;44826;51.596;5.624;2022-10-15T13:12:20;2.20;;;1.95;;
59042;SDS011;44826;51.596;5.624;2022-10-15T13:14:51;2.80;;;2.20;;
59042;SDS011;44826;51.596;5.624;2022-10-15T13:17:21;3.65;;;1.90;;
59042;SDS011;44826;51.596;5.624;2022-10-15T13:19:48;2.33;;;1.80;;
59042;SDS011;44826;51.596;5.624;2022-10-15T13:22:31;3.28;;;1.90;;
59042;SDS011;44826;51.596;5.624;2022-10-15T13:24:57;2.92;;;2.10;;
59042;SDS011;44826;51.596;5.624;2022-10-15T13:27:24;3.95;;;2.05;;
59042;SDS011;44826;51.596;5.624;2022-10-15T13:29:53;2.63;;;2.03;;
59042;SDS011;44826;51.596;5.624;2022-10-15T13:32:20;2.22;;;1.90;;
59042;SDS011;44826;51.596;5.624;2022-10-15T13:34:45;2.63;;;2.08;;
59042;SDS011;44826;51.596;5.624;2022-10-15T13:37:12;5.75;;;2.45;;
59042;SDS011;44826;51.596;5.624;2022-10-15T13:39:42;3.90;;;2.63;;
59042;SDS011;44826;51.596;5.624;2022-10-15T13:42:23;5.30;;;2.95;;
59042;SDS011;44826;51.596;5.624;2022-10-15T13:44:59;4.55;;;3.40;;
59042;SDS011;44826;51.596;5.624;2022-10-15T13:47:32;4.55;;;3.60;;
59042;SDS011;44826;51.596;5.624;2022-10-15T13:52:43;4.25;;;3.80;;
59042;SDS011;44826;51.596;5.624;2022-10-15T13:55:17;5.55;;;3.83;;
59042;SDS011;44826;51.596;5.624;2022-10-15T13:57:46;5.00;;;3.40;;
59042;SDS011;44826;51.596;5.624;2022-10-15T14:00:19;7.72;;;3.88;;
59042;SDS011;44826;51.596;5.624;2022-10-15T14:05:40;4.55;;;3.30;;
59042;SDS011;44826;51.596;5.624;2022-10-15T14:08:26;3.65;;;2.92;;
59042;SDS011;44826;51.596;5.624;2022-10-15T14:10:54;2.20;;;2.00;;
59042;SDS011;44826;51.596;5.624;2022-10-15T14:13:22;2.25;;;1.88;;
59042;SDS011;44826;51.596;5.624;2022-10-15T14:18:30;2.08;;;1.05;;
59042;SDS011;44826;51.596;5.624;2022-10-15T14:21:17;0.85;;;0.82;;
59042;SDS011;44826;51.596;5.624;2022-10-15T14:23:45;1.42;;;0.90;;
59042;SDS011;44826;51.596;5.624;2022-10-15T14:26:12;3.20;;;1.00;;
59042;SDS011;44826;51.596;5.624;2022-10-15T14:28:40;1.30;;;0.80;;
59042;SDS011;44826;51.596;5.624;2022-10-15T14:31:21;1.52;;;0.80;;
59042;SDS011;44826;51.596;5.624;2022-10-15T14:33:54;1.33;;;0.73;;
59042;SDS011;44826;51.596;5.624;2022-10-15T14:36:29;3.05;;;0.82;;
59042;SDS011;44826;51.596;5.624;2022-10-15T14:39:17;1.90;;;0.70;;
59042;SDS011;44826;51.596;5.624;2022-10-15T14:41:56;1.73;;;0.52;;
59042;SDS011;44826;51.596;5.624;2022-10-15T14:44:21;0.60;;;0.40;;
59042;SDS011;44826;51.596;5.624;2022-10-15T14:46:47;1.30;;;0.40;;
59042;SDS011;44826;51.596;5.624;2022-10-15T14:49:15;2.72;;;0.32;;
59042;SDS011;44826;51.596;5.624;2022-10-15T14:51:44;1.33;;;0.40;;
59042;SDS011;44826;51.596;5.624;2022-10-15T14:54:20;0.20;;;0.20;;
59042;SDS011;44826;51.596;5.624;2022-10-15T14:56:50;1.35;;;0.40;;
59042;SDS011;44826;51.596;5.624;2022-10-15T14:59:17;0.57;;;0.30;;
59042;SDS011;44826;51.596;5.624;2022-10-15T15:01:53;0.28;;;0.22;;
59042;SDS011;44826;51.596;5.624;2022-10-15T15:04:30;0.57;;;0.30;;
59042;SDS011;44826;51.596;5.624;2022-10-15T15:07:14;0.98;;;0.38;;
59042;SDS011;44826;51.596;5.624;2022-10-15T15:09:42;0.30;;;0.30;;
59042;SDS011;44826;51.596;5.624;2022-10-15T15:12:20;1.65;;;0.55;;
59042;SDS011;44826;51.596;5.624;2022-10-15T15:14:48;0.60;;;0.40;;
59042;SDS011;44826;51.596;5.624;2022-10-15T15:17:21;0.63;;;0.35;;
59042;SDS011;44826;51.596;5.624;2022-10-15T15:19:48;0.73;;;0.40;;
59042;SDS011;44826;51.596;5.624;2022-10-15T15:22:17;1.52;;;0.50;;
59042;SDS011;44826;51.596;5.624;2022-10-15T15:24:47;0.63;;;0.40;;
59042;SDS011;44826;51.596;5.624;2022-10-15T15:27:17;0.40;;;0.40;;
59042;SDS011;44826;51.596;5.624;2022-10-15T15:29:47;1.52;;;0.60;;
59042;SDS011;44826;51.596;5.624;2022-10-15T15:32:13;1.40;;;0.60;;
59042;SDS011;44826;51.596;5.624;2022-10-15T15:34:39;1.60;;;0.50;;
59042;SDS011;44826;51.596;5.624;2022-10-15T15:37:15;1.67;;;0.57;;
59042;SDS011;44826;51.596;5.624;2022-10-15T15:39:42;0.47;;;0.47;;
59042;SDS011;44826;51.596;5.624;2022-10-15T15:42:10;1.90;;;0.50;;
59042;SDS011;44826;51.596;5.624;2022-10-15T15:44:36;0.85;;;0.55;;
59042;SDS011;44826;51.596;5.624;2022-10-15T15:47:02;2.25;;;0.50;;
59042;SDS011;44826;51.596;5.624;2022-10-15T15:49:27;1.95;;;0.50;;
59042;SDS011;44826;51.596;5.624;2022-10-15T15:51:52;1.13;;;0.50;;
59042;SDS011;44826;51.596;5.624;2022-10-15T15:54:17;3.75;;;0.70;;
59042;SDS011;44826;51.596;5.624;2022-10-15T15:56:43;2.47;;;0.60;;
59042;SDS011;44826;51.596;5.624;2022-10-15T15:59:08;0.77;;;0.38;;
59042;SDS011;44826;51.596;5.624;2022-10-15T16:01:33;1.00;;;0.50;;
59042;SDS011;44826;51.596;5.624;2022-10-15T16:03:58;1.20;;;0.60;;
59042;SDS011;44826;51.596;5.624;2022-10-15T16:06:24;1.27;;;0.40;;
59042;SDS011;44826;51.596;5.624;2022-10-15T16:08:50;0.70;;;0.40;;
59042;SDS011;44826;51.596;5.624;2022-10-15T16:11:16;0.93;;;0.43;;
59042;SDS011;44826;51.596;5.624;2022-10-15T16:13:41;1.23;;;0.52;;
59042;SDS011;44826;51.596;5.624;2022-10-15T16:16:07;0.57;;;0.40;;
59042;SDS011;44826;51.596;5.624;2022-10-15T16:18:33;0.93;;;0.40;;
59042;SDS011;44826;51.596;5.624;2022-10-15T16:20:58;0.70;;;0.40;;
59042;SDS011;44826;51.596;5.624;2022-10-15T16:23:23;1.23;;;0.40;;
59042;SDS011;44826;51.596;5.624;2022-10-15T16:25:49;0.95;;;0.47;;
59042;SDS011;44826;51.596;5.624;2022-10-15T16:28:14;1.20;;;0.50;;
59042;SDS011;44826;51.596;5.624;2022-10-15T16:30:39;1.10;;;0.50;;
59042;SDS011;44826;51.596;5.624;2022-10-15T16:33:05;0.52;;;0.40;;
59042;SDS011;44826;51.596;5.624;2022-10-15T16:35:30;2.78;;;0.60;;
59042;SDS011;44826;51.596;5.624;2022-10-15T16:37:56;1.90;;;0.95;;
59042;SDS011;44826;51.596;5.624;2022-10-15T16:40:21;2.80;;;0.60;;